Impacts TAF Board INFO
FOR SITUATIONAL AWARENESS. NOT TO BE USED FOR FLIGHT PLANNING PURPOSES.
IDs:

KORD - Chicago/O'Hare Intl, IL, US

Issued at 2320 UTC 23 Feb 2018
Updated at 0013 UTC 24 Feb 2018
Potential Impact None Slight Moderate High
Time<<25/01Z 25/02Z 25/03Z 25/04Z 25/05Z 25/06Z 25/07Z 25/08Z 25/09Z 25/10Z 25/11Z 25/12Z 25/13Z
Type PRVL PRVL PRVL PRVL PRVL
VIS 6 6 2 2 2
CIG 8 8 4 4 4
Cover OVC OVC OVC OVC OVC
FltCat IFR IFR LIFR LIFR LIFR
WX -RA BR -RA BR -RA BR -RA BR -RA BR
WDir 110 110 150 150 150
WSpd 13 13 14 14 14
WGst -- -- -- -- --

Raw TAF
KORD 232320Z 2400/2506 28008KT P6SM OVC015
  FM240500 34005KT P6SM OVC015
  FM240900 04007KT P6SM SCT007 OVC015
  FM241200 08012KT P6SM OVC015
  FM250000 11013KT 6SM -RA BR OVC008
  FM250300 15014KT 2SM -RA BR OVC004 WS020/19045KT


METAR Board
Radar Display
Forecast Discussion

FOR SITUATIONAL AWARENESS. NOT TO BE USED FOR FLIGHT PLANNING PURPOSES.